»·PEaware :: SWA1 KPHX-KSFO

SWA1 :: KPHX-KSFO

FLIGHT INFORMATION

Flight Status: Arrived
Operator:
Southwest Airlines
More flights by this operator :: More flights under this callsign
Pilot: Maximilliano F. (23467)
Aircraft: BOEING 737-800
(B738)
More flights by this aircraft type
Origin: KPHX Phoenix Sky Harbor Intl
United States
Destination: KSFO San Francisco Intl
United States
More flights between these airports :: More routes between these airports
Route: KEENS2 HRRBR CURIV J212 DECAS PMD AVE MAKRS SERFR SERFR3
File this flight plan on PilotEdge
Remarks: RMK / SIMBRIEF
Altitude:
(Current/Filed)
36,000ft
Speed:
(Current/Filed)
463kts
Departed: 06-Nov-19 04:07 PM
Arrived: 06-Nov-19 05:39 PM
Distance/Time
Traveled:
565nm/1:32
Distance/Time
To Go:
Arrived

Flight Plot

Page will automatically refresh every two minutes.

Flight plan parsing failed; only flown route is shown


Map Options




Map Legend


Flown Route
Filed Route
Departure Airport
Arrival Airport
Navaid (VOR, NDB)
Fix

Horizontal Profiles

Position Reports

Time Latitude Longitude Heading Altitude Ground
Speed
06-Nov-19 15:35 33.434464 -111.994859 89 1139ft 0kts
06-Nov-19 15:35 33.434464 -111.994859 89 1139ft 0kts
06-Nov-19 15:36 33.434464 -111.994859 89 1139ft 0kts
06-Nov-19 15:37 33.434464 -111.994859 89 1139ft 0kts
06-Nov-19 15:38 33.434464 -111.994859 89 1139ft 0kts
06-Nov-19 15:39 33.434464 -111.994859 89 1139ft 0kts
06-Nov-19 15:40 33.434464 -111.994859 89 1138ft 0kts
06-Nov-19 15:41 33.434464 -111.994859 89 1138ft 0kts
06-Nov-19 15:42 33.434464 -111.994859 89 1138ft 0kts
06-Nov-19 15:43 33.434464 -111.994859 89 1138ft 0kts
06-Nov-19 15:44 33.434464 -111.994859 89 1138ft 0kts
06-Nov-19 15:45 33.434464 -111.994859 89 1138ft 0kts
06-Nov-19 15:46 33.434464 -111.994859 89 1138ft 0kts
06-Nov-19 15:47 33.434464 -111.994859 89 1138ft 0kts
06-Nov-19 15:48 33.434464 -111.994859 89 1138ft 0kts
06-Nov-19 15:49 33.434464 -111.994859 89 1138ft 0kts
06-Nov-19 15:50 33.434464 -111.994859 89 1138ft 0kts
06-Nov-19 15:51 33.434464 -111.994859 89 1138ft 0kts
06-Nov-19 15:52 33.434464 -111.994869 91 1139ft 1kts
06-Nov-19 15:53 33.434441 -111.995378 169 1139ft 0kts
06-Nov-19 15:54 33.434530 -111.995379 177 1139ft 0kts
06-Nov-19 15:55 33.434530 -111.995379 177 1139ft 0kts
06-Nov-19 15:56 33.434530 -111.995379 177 1139ft 0kts
06-Nov-19 15:57 33.434530 -111.995379 177 1139ft 0kts
06-Nov-19 15:58 33.434524 -111.995379 177 1139ft 0kts
06-Nov-19 15:59 33.433453 -111.995312 180 1139ft 0kts
06-Nov-19 16:00 33.433434 -111.995312 180 1139ft 1kts
06-Nov-19 16:01 33.432818 -111.992651 89 1138ft 10kts
06-Nov-19 16:02 33.432020 -111.992698 224 1139ft 0kts
06-Nov-19 16:03 33.432020 -111.992698 224 1139ft 0kts
06-Nov-19 16:04 33.432020 -111.992699 224 1139ft 0kts
06-Nov-19 16:05 33.431029 -111.994611 270 1138ft 12kts
06-Nov-19 16:06 33.430048 -112.037874 264 2041ft 185kts
06-Nov-19 16:07 33.417198 -112.108485 251 3971ft 257kts
06-Nov-19 16:08 33.395421 -112.193811 266 7074ft 276kts
06-Nov-19 16:09 33.403837 -112.287289 280 10076ft 289kts
06-Nov-19 16:10 33.419385 -112.391310 280 11964ft 337kts
06-Nov-19 16:11 33.436095 -112.504445 280 14754ft 352kts
06-Nov-19 16:12 33.450652 -112.622492 271 17452ft 366kts
06-Nov-19 16:13 33.452073 -112.743548 270 19861ft 380kts
06-Nov-19 16:14 33.465630 -112.870327 283 22111ft 393kts
06-Nov-19 16:15 33.490320 -113.000454 282 24176ft 406kts
06-Nov-19 16:16 33.515146 -113.133951 282 26051ft 418kts
06-Nov-19 16:17 33.540650 -113.271925 282 27778ft 429kts
06-Nov-19 16:18 33.566623 -113.413357 282 29364ft 440kts
06-Nov-19 16:19 33.592928 -113.557411 282 31048ft 444kts
06-Nov-19 16:20 33.619560 -113.700549 282 32847ft 441kts
06-Nov-19 16:21 33.646081 -113.843666 282 34494ft 437kts
06-Nov-19 16:22 33.672077 -113.985533 282 35922ft 435kts
06-Nov-19 16:23 33.698567 -114.130214 282 35998ft 447kts
06-Nov-19 16:24 33.724903 -114.275095 282 36000ft 444kts
06-Nov-19 16:25 33.751170 -114.420610 282 35999ft 445kts
06-Nov-19 16:26 33.774613 -114.566181 275 36004ft 445kts
06-Nov-19 16:27 33.782844 -114.711090 273 36000ft 445kts
06-Nov-19 16:28 33.791375 -114.859208 273 36000ft 445kts
06-Nov-19 16:29 33.799740 -115.007681 273 36000ft 445kts
06-Nov-19 16:30 33.807896 -115.155582 273 36000ft 445kts
06-Nov-19 16:31 33.815915 -115.304254 273 36000ft 445kts
06-Nov-19 16:32 33.826663 -115.452160 283 36005ft 445kts
06-Nov-19 16:33 33.867263 -115.592174 291 36000ft 445kts
06-Nov-19 16:34 33.911798 -115.730230 291 36000ft 445kts
06-Nov-19 16:35 33.956405 -115.869517 291 36000ft 445kts
06-Nov-19 16:36 34.000722 -116.008519 291 36000ft 445kts
06-Nov-19 16:37 34.044891 -116.147691 291 36000ft 445kts
06-Nov-19 16:38 34.088994 -116.287292 291 36000ft 445kts
06-Nov-19 16:39 34.132458 -116.425499 290 36000ft 445kts
06-Nov-19 16:40 34.176245 -116.565376 290 36000ft 445kts
06-Nov-19 16:41 34.218604 -116.701312 290 36000ft 445kts
06-Nov-19 16:42 34.261999 -116.841213 290 36000ft 445kts
06-Nov-19 16:43 34.305338 -116.981589 290 36000ft 445kts
06-Nov-19 16:44 34.348423 -117.121798 290 36000ft 445kts
06-Nov-19 16:45 34.391524 -117.262720 290 36000ft 445kts
06-Nov-19 16:46 34.434596 -117.404220 290 36000ft 445kts
06-Nov-19 16:47 34.477184 -117.544800 290 36000ft 445kts
06-Nov-19 16:48 34.519224 -117.684230 289 36000ft 445kts
06-Nov-19 16:49 34.561620 -117.825507 289 36000ft 445kts
06-Nov-19 16:50 34.603731 -117.966517 289 36000ft 445kts
06-Nov-19 16:51 34.653427 -118.104198 302 36002ft 445kts
06-Nov-19 16:52 34.721769 -118.229929 303 35999ft 445kts
06-Nov-19 16:53 34.789989 -118.355825 303 36000ft 445kts
06-Nov-19 16:54 34.857848 -118.481487 303 36000ft 445kts
06-Nov-19 16:55 34.925596 -118.607389 303 36000ft 445kts
06-Nov-19 16:56 34.992067 -118.731355 303 36000ft 445kts
06-Nov-19 16:57 35.059650 -118.857842 303 36000ft 445kts
06-Nov-19 16:58 35.126215 -118.982866 302 36000ft 445kts
06-Nov-19 16:59 35.193424 -119.109552 302 36000ft 445kts
06-Nov-19 17:00 35.260631 -119.236691 302 36000ft 445kts
06-Nov-19 17:01 35.327646 -119.363926 302 36000ft 445kts
06-Nov-19 17:02 35.394439 -119.491201 303 36000ft 445kts
06-Nov-19 17:03 35.461250 -119.618974 303 36000ft 445kts
06-Nov-19 17:04 35.527389 -119.745926 302 36000ft 445kts
06-Nov-19 17:05 35.593982 -119.874214 302 36000ft 445kts
06-Nov-19 17:06 35.646502 -120.010650 285 36002ft 445kts
06-Nov-19 17:07 35.665087 -120.160999 276 35999ft 445kts
06-Nov-19 17:08 35.680351 -120.312175 281 36000ft 445kts
06-Nov-19 17:09 35.724478 -120.453525 295 36000ft 445kts
06-Nov-19 17:10 35.777408 -120.591408 295 36000ft 445kts
06-Nov-19 17:11 35.829329 -120.727853 294 36000ft 445kts
06-Nov-19 17:12 35.881756 -120.866203 294 36000ft 445kts
06-Nov-19 17:13 35.933878 -121.004335 294 36000ft 445kts
06-Nov-19 17:14 35.985954 -121.142959 294 36000ft 445kts
06-Nov-19 17:15 36.038558 -121.283142 296 36002ft 461kts
06-Nov-19 17:16 36.119156 -121.400969 323 36002ft 458kts
06-Nov-19 17:17 36.225584 -121.487388 328 34530ft 456kts
06-Nov-19 17:18 36.332115 -121.570697 328 30463ft 443kts
06-Nov-19 17:19 36.433935 -121.650663 327 27523ft 436kts
06-Nov-19 17:20 36.534228 -121.729830 328 25043ft 419kts
06-Nov-19 17:21 36.627496 -121.803799 328 22359ft 372kts
06-Nov-19 17:22 36.709982 -121.868973 328 19972ft 337kts
06-Nov-19 17:23 36.799836 -121.910611 346 18923ft 351kts
06-Nov-19 17:24 36.894818 -121.937039 346 16426ft 352kts
06-Nov-19 17:25 36.988184 -121.967103 342 13991ft 334kts
06-Nov-19 17:27 37.073958 -122.000683 342 11721ft 320kts
06-Nov-19 17:28 37.153708 -122.031799 342 10520ft 271kts
06-Nov-19 17:29 37.222836 -122.058903 342 9393ft 256kts
06-Nov-19 17:30 37.291970 -122.086013 342 7861ft 261kts
06-Nov-19 17:31 37.361575 -122.113517 342 6305ft 259kts
06-Nov-19 17:32 37.428451 -122.137092 344 4606ft 246kts
06-Nov-19 17:33 37.490881 -122.158586 345 3581ft 210kts
06-Nov-19 17:34 37.540310 -122.190369 307 3008ft 198kts
06-Nov-19 17:35 37.564507 -122.246128 297 1964ft 155kts
06-Nov-19 17:36 37.584107 -122.292870 300 1212ft 145kts
06-Nov-19 17:37 37.602191 -122.335770 297 465ft 134kts
06-Nov-19 17:38 37.617728 -122.372686 298 16ft 49kts
06-Nov-19 17:39 37.618961 -122.378254 268 30ft 0kts
06-Nov-19 17:40 37.616135 -122.379964 208 33ft 17kts
06-Nov-19 17:41 37.612210 -122.382564 208 34ft 14kts
06-Nov-19 17:42 37.610638 -122.384707 297 33ft 11kts
06-Nov-19 17:43 37.611819 -122.387730 278 32ft 6kts
06-Nov-19 17:44 37.612260 -122.389024 299 32ft 0kts

Navigation Log

Ident Type
Flight plan parsing failed, navigation log unavailable